RJCC/CTS METAR and TAF weather

Enter ICAO airport designator
Station Type Date Time Source
RJCC METAR 2022/01/29 12:30 UTC NOAA

RJCC 291230Z VRB02KT 4900 -SHSN FEW005 BKN015 M07/M08 Q1007


Station Type Date Time Source
RJCC Decoded METAR 2022/01/29 12:30 UTC NOAA

Chitose Ab, Japan (RJCC) 42-48N 141-40E 30M
Jan 29, 2022 - 07:30 AM EST / 2022.01.29 1230 UTC
Wind: Variable at 2 MPH (2 KT):0
Visibility: 3 mile(s):0
Sky conditions: mostly cloudy
Weather: light snow showers
Temperature: 19 F (-7 C)
Dew Point: 17 F (-8 C)
Relative Humidity: 92%
Pressure (altimeter): 29.74 in. Hg (1007 hPa)
ob: RJCC 291230Z VRB02KT 4900 -SHSN FEW005 BKN015 M07/M08 Q1007
cycle: 12

Station Type Date Time Source
RJCC TAF 2022/01/29 12:30 UTC NOAA

TAF RJCC 291105Z 2912/3018 30005KT 9999 FEW008 BKN015
TEMPO 2912/2918 3000 -SHSN
TEMPO 3000/3006 1500 -SHSN FEW003 BKN006
TEMPO 3006/3009 3000 -SHSN
BECMG 3009/3012 24005KT

Example: see airport list